Terminal Aerodrome Forecast
Issued by NWS Omaha/Valley, NE

Home | Current Version | Previous Version | Text Only | Print | Product List | Glossary On
Versions: 1 2 3 4 5 6 7 8 9 10 11 12 13 14 15 16 17 18 19 20 21 22 23 24 25 26 27
000
FTUS43 KOAX 231720
TAFOFK
TAF
KOFK 231720Z 2318/2418 33008KT P6SM OVC008
     FM232000 33006KT P6SM BKN015
     FM232200 34006KT P6SM BKN060
     FM240700 05005KT P6SM BKN003
     FM240900 07006KT P6SM OVC008 PROB30 2410/2412 4SM -SN OVC003=

USA.gov is the U.S. government's official web portal to all federal, state and local government web resources and services.